Time;durP1;ratioP1;P1;durP2;ratioP2;P2;SDS_P1;SDS_P2;PMS_P1;PMS_P2;Temp;Humidity;BMP_temperature;BMP_pressure;BME280_temperature;BME280_humidity;BME280_pressure;Samples;Min_cycle;Max_cycle;Signal;HPM_P1;HPM_P2
2023/03/16 00:02:08;;;;;;;8.18;1.88;;;4.10;99.90;;;;;;6155553;23;20016;-88
2023/03/16 00:04:36;;;;;;;5.57;1.55;;;4.10;99.90;;;;;;6129507;23;20104;-89
2023/03/16 00:07:07;;;;;;;5.70;1.33;;;4.10;99.90;;;;;;6129099;23;20516;-88
2023/03/16 00:09:33;;;;;;;4.57;1.58;;;4.10;99.90;;;;;;6155839;23;20006;-88
2023/03/16 00:12:02;;;;;;;10.02;1.85;;;4.20;99.90;;;;;;6104796;23;20390;-87
2023/03/16 00:14:29;;;;;;;8.20;1.40;;;4.10;99.90;;;;;;6155466;23;20040;-88
2023/03/16 00:16:55;;;;;;;6.35;2.25;;;4.10;99.90;;;;;;6105661;23;20057;-88
2023/03/16 00:19:24;;;;;;;6.38;1.70;;;4.10;99.90;;;;;;6154658;23;20397;-88
2023/03/16 00:21:50;;;;;;;3.95;1.23;;;4.10;99.90;;;;;;6104547;23;20013;-88
2023/03/16 00:24:17;;;;;;;6.22;1.55;;;4.20;99.90;;;;;;6104611;23;20014;-89
2023/03/16 00:26:44;;;;;;;7.25;1.20;;;4.20;99.90;;;;;;6129396;23;20038;-88
2023/03/16 00:29:10;;;;;;;3.58;1.50;;;4.30;99.90;;;;;;6128963;23;20025;-89
2023/03/16 00:31:37;;;;;;;6.38;1.50;;;4.20;99.90;;;;;;6129661;23;20093;-88
2023/03/16 00:34:02;;;;;;;5.78;1.52;;;4.30;99.90;;;;;;6103807;23;20021;-88
2023/03/16 00:36:29;;;;;;;8.18;1.50;;;4.20;99.90;;;;;;6128851;23;20014;-88
2023/03/16 00:38:55;;;;;;;7.50;1.90;;;4.30;99.90;;;;;;6128745;23;20069;-88
2023/03/16 00:41:21;;;;;;;7.82;1.70;;;4.30;99.90;;;;;;6136933;23;20013;-88
2023/03/16 00:43:47;;;;;;;7.95;1.88;;;4.30;99.90;;;;;;6111749;23;20093;-89
2023/03/16 00:46:17;;;;;;;5.47;2.10;;;4.30;99.90;;;;;;6129703;23;20018;-89
2023/03/16 00:48:45;;;;;;;5.22;1.67;;;4.30;99.90;;;;;;6105012;23;20505;-89
2023/03/16 00:51:14;;;;;;;7.18;1.92;;;4.30;99.90;;;;;;6129660;23;20021;-89
2023/03/16 00:53:42;;;;;;;14.05;2.42;;;4.20;99.90;;;;;;6129214;23;20021;-89
2023/03/16 00:56:08;;;;;;;4.75;1.88;;;4.30;99.90;;;;;;6154788;23;20041;-89
2023/03/16 00:58:36;;;;;;;7.47;1.90;;;4.30;99.90;;;;;;6127895;23;20080;-88
2023/03/16 01:01:04;;;;;;;4.63;1.95;;;4.30;99.90;;;;;;6130006;23;20017;-88
2023/03/16 01:03:31;;;;;;;7.88;2.17;;;4.30;99.90;;;;;;6128043;23;20013;-88
2023/03/16 01:05:58;;;;;;;9.13;1.80;;;4.30;99.90;;;;;;6128466;23;20088;-88
2023/03/16 01:08:26;;;;;;;7.93;1.88;;;4.30;99.90;;;;;;6102959;23;20017;-88
2023/03/16 01:10:53;;;;;;;6.13;1.85;;;4.30;99.90;;;;;;6104722;23;20014;-89
2023/03/16 01:13:20;;;;;;;5.53;1.60;;;4.30;99.90;;;;;;6127943;23;20014;-89
2023/03/16 01:15:45;;;;;;;6.93;1.60;;;4.30;99.90;;;;;;6153921;23;20473;-88
2023/03/16 01:18:12;;;;;;;6.95;2.25;;;4.30;99.90;;;;;;6103404;23;20024;-89
2023/03/16 01:20:38;;;;;;;5.78;2.00;;;4.30;99.90;;;;;;6128498;23;20046;-89
2023/03/16 01:23:04;;;;;;;5.30;2.38;;;4.30;99.90;;;;;;6127613;23;20018;-88
2023/03/16 01:25:31;;;;;;;6.40;2.33;;;4.30;99.90;;;;;;6128930;23;20014;-89
2023/03/16 01:27:56;;;;;;;6.50;2.47;;;4.30;99.90;;;;;;6129340;23;20020;-89
2023/03/16 01:30:22;;;;;;;6.55;2.50;;;4.20;99.90;;;;;;6128000;23;20021;-89
2023/03/16 01:32:48;;;;;;;6.70;2.25;;;4.20;99.90;;;;;;6127677;23;20048;-89
2023/03/16 01:35:14;;;;;;;11.45;3.70;;;4.20;99.90;;;;;;6154650;23;20010;-88
2023/03/16 01:37:40;;;;;;;6.43;2.47;;;4.70;99.90;;;;;;6129871;23;20021;-89
2023/03/16 01:40:07;;;;;;;7.05;2.65;;;4.10;99.90;;;;;;6143230;23;20016;-89
2023/03/16 01:42:43;;;;;;;6.63;2.60;;;4.10;99.90;;;;;;6126765;23;20015;-88
2023/03/16 01:45:47;;;;;;;8.73;2.20;;;4.10;99.90;;;;;;6109250;23;20090;-88
2023/03/16 01:48:13;;;;;;;7.72;2.75;;;4.00;99.90;;;;;;6105451;23;20049;-88
2023/03/16 01:50:41;;;;;;;8.55;2.40;;;4.00;99.90;;;;;;6105988;23;20092;-89
2023/03/16 01:53:07;;;;;;;11.68;2.67;;;4.00;99.90;;;;;;6129197;23;20013;-88
2023/03/16 01:55:34;;;;;;;9.15;2.65;;;4.00;99.90;;;;;;6105526;23;20046;-89
2023/03/16 01:58:00;;;;;;;5.65;2.35;;;3.90;99.90;;;;;;6104715;23;20450;-89
2023/03/16 02:00:30;;;;;;;8.27;2.65;;;3.90;99.90;;;;;;6129204;23;20013;-88
2023/03/16 02:03:01;;;;;;;4.93;2.42;;;3.90;99.90;;;;;;6106035;23;20017;-88
2023/03/16 02:05:37;;;;;;;5.00;2.53;;;3.90;99.90;;;;;;6129574;23;20049;-89
2023/03/16 02:08:04;;;;;;;8.48;2.65;;;3.90;99.90;;;;;;6106519;23;20018;-88
2023/03/16 02:10:32;;;;;;;5.00;2.30;;;3.90;99.90;;;;;;6131892;23;20013;-89
2023/03/16 02:12:58;;;;;;;11.02;4.90;;;3.90;99.90;;;;;;6106735;23;20018;-89
2023/03/16 02:15:24;;;;;;;6.13;2.25;;;3.90;99.90;;;;;;6107363;23;20009;-89
2023/03/16 02:17:50;;;;;;;9.73;3.08;;;3.90;99.90;;;;;;6107372;23;20013;-88
2023/03/16 02:20:22;;;;;;;6.85;2.70;;;3.90;99.90;;;;;;6107760;23;20010;-88
2023/03/16 02:22:53;;;;;;;7.43;2.67;;;3.90;99.90;;;;;;6108043;23;20013;-88
2023/03/16 02:25:21;;;;;;;11.02;2.78;;;3.90;99.90;;;;;;6157928;23;20010;-88
2023/03/16 02:27:59;;;;;;;7.22;2.88;;;3.90;99.90;;;;;;6129962;23;20010;-89
2023/03/16 02:30:25;;;;;;;6.63;2.90;;;4.00;99.90;;;;;;6106946;23;20013;-89
2023/03/16 02:32:52;;;;;;;5.95;2.58;;;4.00;99.90;;;;;;6132548;23;20053;-89
2023/03/16 02:35:18;;;;;;;6.00;2.90;;;3.90;99.90;;;;;;6130752;23;20024;-88
2023/03/16 02:37:44;;;;;;;12.07;3.05;;;4.00;99.90;;;;;;6157386;23;20016;-89
2023/03/16 02:40:23;;;;;;;6.43;2.53;;;4.00;99.90;;;;;;6131637;23;20092;-88
2023/03/16 02:43:01;;;;;;;4.45;2.42;;;4.00;99.90;;;;;;6105951;23;20052;-89
2023/03/16 02:45:34;;;;;;;6.82;2.80;;;4.00;99.90;;;;;;6131997;23;20014;-89
2023/03/16 02:48:04;;;;;;;8.27;2.53;;;4.10;99.90;;;;;;6131071;23;20016;-89
2023/03/16 02:50:29;;;;;;;8.65;3.20;;;4.10;99.90;;;;;;6130385;23;20090;-89
2023/03/16 02:52:55;;;;;;;5.40;3.13;;;5.00;99.90;;;;;;6132009;23;20026;-88
2023/03/16 02:55:20;;;;;;;4.97;2.80;;;4.00;99.90;;;;;;6108614;23;20024;-88
2023/03/16 02:57:47;;;;;;;21.10;3.88;;;4.00;99.90;;;;;;6109628;23;20080;-88
2023/03/16 03:00:17;;;;;;;5.25;2.72;;;4.10;99.90;;;;;;6155623;23;20013;-89
2023/03/16 03:02:44;;;;;;;7.47;2.67;;;4.10;99.90;;;;;;6131524;23;20049;-89
2023/03/16 03:05:11;;;;;;;7.13;2.78;;;4.10;99.90;;;;;;6130727;23;20013;-88
2023/03/16 03:07:37;;;;;;;6.93;2.90;;;4.10;99.90;;;;;;6130895;23;20092;-89
2023/03/16 03:10:04;;;;;;;6.05;2.67;;;4.10;99.90;;;;;;6132506;23;20024;-88
2023/03/16 03:12:31;;;;;;;4.90;2.75;;;4.20;99.90;;;;;;6109247;23;20005;-88
2023/03/16 03:14:57;;;;;;;5.80;2.85;;;4.20;99.90;;;;;;6107291;23;20316;-89
2023/03/16 03:17:28;;;;;;;9.38;3.13;;;4.20;99.90;;;;;;6130023;23;20068;-88
2023/03/16 03:19:58;;;;;;;5.03;2.85;;;4.30;99.90;;;;;;6130364;23;20013;-88
2023/03/16 03:22:25;;;;;;;5.30;2.85;;;4.20;99.90;;;;;;6105890;23;20059;-88
2023/03/16 03:24:51;;;;;;;12.00;3.00;;;4.30;99.90;;;;;;6129342;23;20017;-88
2023/03/16 03:27:18;;;;;;;6.70;3.00;;;4.30;99.90;;;;;;6104730;23;20017;-88
2023/03/16 03:29:44;;;;;;;8.02;2.92;;;4.30;99.90;;;;;;6130616;23;20083;-89
2023/03/16 03:32:10;;;;;;;4.85;2.45;;;4.30;99.90;;;;;;6129493;23;20454;-89
2023/03/16 03:34:36;;;;;;;11.48;2.75;;;4.30;99.90;;;;;;6135459;23;20024;-88
2023/03/16 03:37:01;;;;;;;4.85;2.50;;;4.40;99.90;;;;;;6156517;23;20088;-88
2023/03/16 03:39:27;;;;;;;7.00;2.50;;;4.40;99.90;;;;;;6105336;23;20021;-90
2023/03/16 03:41:53;;;;;;;10.77;2.38;;;4.40;99.90;;;;;;6130807;23;20020;-89
2023/03/16 03:44:20;;;;;;;5.18;2.40;;;4.40;99.90;;;;;;6129921;23;20017;-88
2023/03/16 03:46:46;;;;;;;5.03;2.22;;;4.40;99.90;;;;;;6155964;23;20016;-88
2023/03/16 03:49:12;;;;;;;4.38;2.60;;;4.50;99.90;;;;;;6109459;23;20066;-89
2023/03/16 03:51:37;;;;;;;6.40;2.45;;;6.00;99.90;;;;;;6155928;23;20014;-88
2023/03/16 03:54:03;;;;;;;6.03;2.45;;;5.40;99.90;;;;;;6127220;23;20017;-89
2023/03/16 03:56:29;;;;;;;6.35;2.78;;;5.40;99.90;;;;;;6101790;23;20096;-88
2023/03/16 03:58:55;;;;;;;6.20;2.53;;;4.50;99.90;;;;;;6102064;23;20020;-88
2023/03/16 04:01:20;;;;;;;7.32;2.33;;;4.90;99.90;;;;;;6102090;23;20025;-88
2023/03/16 04:03:46;;;;;;;6.75;2.55;;;4.50;99.90;;;;;;6126959;23;20120;-88
2023/03/16 04:06:11;;;;;;;8.70;2.30;;;4.40;99.90;;;;;;6126266;23;20056;-88
2023/03/16 04:08:37;;;;;;;5.63;2.42;;;4.50;99.90;;;;;;6102061;23;20096;-88
2023/03/16 04:11:03;;;;;;;8.23;3.22;;;4.50;99.90;;;;;;6101328;23;20358;-88
2023/03/16 04:13:28;;;;;;;7.07;2.33;;;4.50;99.90;;;;;;6101423;23;20124;-87
2023/03/16 04:15:58;;;;;;;6.93;2.78;;;4.50;99.90;;;;;;6126716;23;20009;-88
2023/03/16 04:18:24;;;;;;;6.45;2.30;;;5.10;99.90;;;;;;6103226;23;20068;-88
2023/03/16 04:20:54;;;;;;;6.80;2.65;;;4.50;99.90;;;;;;6101287;23;20399;-88
2023/03/16 04:23:21;;;;;;;3.70;2.20;;;4.50;99.90;;;;;;6101156;23;20017;-88
2023/03/16 04:25:46;;;;;;;8.45;2.08;;;4.40;99.90;;;;;;6102532;23;20010;-88
2023/03/16 04:28:12;;;;;;;7.18;3.08;;;4.50;99.90;;;;;;6101252;23;20078;-90
2023/03/16 04:30:38;;;;;;;6.82;2.25;;;4.50;99.90;;;;;;6100691;23;20021;-88
2023/03/16 04:33:04;;;;;;;6.53;2.50;;;4.60;99.90;;;;;;6101429;23;20018;-88
2023/03/16 04:35:30;;;;;;;6.05;2.50;;;4.50;99.90;;;;;;6127043;23;20013;-87
2023/03/16 04:37:56;;;;;;;6.05;2.38;;;4.50;99.90;;;;;;6126094;23;20020;-89
2023/03/16 04:40:22;;;;;;;7.75;2.42;;;4.60;99.90;;;;;;6102277;23;20065;-88
2023/03/16 04:42:48;;;;;;;5.95;2.63;;;4.50;99.90;;;;;;6101191;23;20013;-88
2023/03/16 04:45:16;;;;;;;8.35;2.38;;;4.50;99.90;;;;;;6101098;23;20017;-88
2023/03/16 04:47:41;;;;;;;6.90;2.42;;;4.60;99.90;;;;;;6126627;23;20017;-88
2023/03/16 04:50:09;;;;;;;5.45;2.67;;;4.50;99.90;;;;;;6101651;23;20028;-87
2023/03/16 04:52:34;;;;;;;7.50;2.58;;;4.60;99.90;;;;;;6125847;23;20019;-88
2023/03/16 04:55:00;;;;;;;10.30;3.05;;;4.50;99.90;;;;;;6125293;23;20088;-88
2023/03/16 04:57:26;;;;;;;3.83;2.50;;;4.30;99.90;;;;;;6125961;23;20402;-88
2023/03/16 04:59:51;;;;;;;5.32;2.30;;;5.80;99.90;;;;;;6101633;23;20726;-88
2023/03/16 05:02:18;;;;;;;9.93;2.35;;;4.50;99.90;;;;;;6099760;23;20018;-89
2023/03/16 05:04:44;;;;;;;5.55;2.35;;;4.60;99.90;;;;;;6102434;23;20337;-88
2023/03/16 05:07:10;;;;;;;7.68;2.40;;;4.80;99.90;;;;;;6126025;23;20017;-87
2023/03/16 05:09:36;;;;;;;4.38;2.55;;;4.50;99.90;;;;;;6125982;23;20027;-88
2023/03/16 05:12:02;;;;;;;8.05;2.85;;;4.60;99.90;;;;;;6102413;23;20092;-88
2023/03/16 05:14:27;;;;;;;5.88;3.45;;;4.60;99.90;;;;;;6101620;23;20458;-87
2023/03/16 05:16:53;;;;;;;5.47;2.22;;;4.50;99.90;;;;;;6101310;23;20014;-87
2023/03/16 05:19:18;;;;;;;6.35;2.45;;;4.50;99.90;;;;;;6101934;23;20016;-88
2023/03/16 05:21:44;;;;;;;6.22;2.88;;;4.60;99.90;;;;;;6128127;23;20385;-88
2023/03/16 05:24:11;;;;;;;5.88;2.22;;;4.60;99.90;;;;;;6127332;23;20684;-89
2023/03/16 05:26:37;;;;;;;4.45;2.67;;;4.50;99.90;;;;;;6103105;23;20017;-88
2023/03/16 05:29:03;;;;;;;7.05;2.97;;;4.60;99.90;;;;;;6126275;23;20013;-87
2023/03/16 05:31:38;;;;;;;9.27;3.03;;;4.60;99.90;;;;;;6128460;23;20052;-87
2023/03/16 05:34:03;;;;;;;6.00;3.20;;;4.60;99.90;;;;;;6126270;23;20020;-87
2023/03/16 05:36:29;;;;;;;4.00;2.45;;;5.20;99.90;;;;;;6128829;23;20442;-86
2023/03/16 05:39:04;;;;;;;4.47;2.20;;;4.50;99.90;;;;;;6098435;23;20074;-85
2023/03/16 05:41:30;;;;;;;5.75;2.63;;;4.40;99.90;;;;;;6126462;23;20021;-86
2023/03/16 05:44:14;;;;;;;5.45;2.85;;;4.60;99.90;;;;;;6151732;23;20014;-89
2023/03/16 05:47:14;;;;;;;8.77;2.60;;;4.60;99.90;;;;;;6126061;23;20016;-87
2023/03/16 05:49:44;;;;;;;4.80;2.90;;;4.60;99.90;;;;;;6127225;23;20022;-87
2023/03/16 05:52:12;;;;;;;6.43;2.97;;;4.60;99.90;;;;;;6099644;23;20040;-86
2023/03/16 05:54:42;;;;;;;11.68;3.42;;;4.40;99.90;;;;;;6126402;23;20029;-82
2023/03/16 05:57:08;;;;;;;7.22;3.20;;;4.60;99.90;;;;;;6103630;23;20045;-86
2023/03/16 05:59:36;;;;;;;5.10;2.55;;;4.50;99.90;;;;;;6100478;23;20014;-88
2023/03/16 06:02:39;;;;;;;6.00;2.38;;;4.60;99.90;;;;;;6102541;23;20009;-88
2023/03/16 06:13:20;;;;;;;7.75;2.78;;;4.60;99.90;;;;;;6062911;23;20034;-89
2023/03/16 06:15:46;;;;;;;4.63;2.93;;;4.70;99.90;;;;;;6044394;23;20034;-84
2023/03/16 06:18:15;;;;;;;6.38;3.05;;;4.60;99.90;;;;;;6043141;23;20064;-87
2023/03/16 06:21:19;;;;;;;6.93;3.03;;;5.70;99.90;;;;;;6041193;23;20095;-87
2023/03/16 06:23:44;;;;;;;6.53;2.90;;;4.70;99.90;;;;;;6052352;23;20018;-84
2023/03/16 06:26:10;;;;;;;5.95;2.70;;;4.70;99.90;;;;;;6113552;23;20024;-86
2023/03/16 06:28:35;;;;;;;4.57;3.08;;;4.80;99.90;;;;;;6125853;23;20021;-84
2023/03/16 06:31:04;;;;;;;5.10;2.70;;;4.70;99.90;;;;;;6126169;23;20018;-89
2023/03/16 06:33:35;;;;;;;4.53;2.65;;;4.70;99.90;;;;;;6126633;23;20092;-87
2023/03/16 06:36:01;;;;;;;5.85;2.58;;;4.70;99.90;;;;;;6126564;23;20068;-86
2023/03/16 06:38:26;;;;;;;6.45;2.75;;;4.70;99.90;;;;;;6128210;23;20025;-84
2023/03/16 06:40:53;;;;;;;6.43;3.50;;;4.70;99.90;;;;;;6129302;23;20009;-84
2023/03/16 06:43:19;;;;;;;5.47;2.40;;;4.80;99.90;;;;;;6103350;23;20017;-84
2023/03/16 06:45:45;;;;;;;6.28;3.15;;;4.80;99.90;;;;;;6104039;23;20037;-84
2023/03/16 06:48:11;;;;;;;7.10;2.70;;;4.70;99.90;;;;;;6104299;23;20017;-85
2023/03/16 06:50:36;;;;;;;4.93;2.67;;;4.80;99.90;;;;;;6128418;23;20480;-85
2023/03/16 06:53:05;;;;;;;5.63;3.40;;;4.80;99.90;;;;;;6103067;23;20018;-85
2023/03/16 06:55:31;;;;;;;6.03;3.47;;;4.90;99.90;;;;;;6104519;23;20025;-84
2023/03/16 06:57:56;;;;;;;3.35;2.17;;;4.90;99.90;;;;;;6127798;23;20014;-84
2023/03/16 07:00:22;;;;;;;7.20;2.95;;;4.90;99.90;;;;;;6126701;23;20016;-86
2023/03/16 07:02:48;;;;;;;4.43;2.55;;;4.90;99.90;;;;;;6103292;23;20013;-84
2023/03/16 07:05:13;;;;;;;6.50;3.25;;;4.90;99.90;;;;;;6103435;23;20037;-84
2023/03/16 07:07:41;;;;;;;2.95;2.13;;;4.90;99.90;;;;;;6127551;23;20014;-84
2023/03/16 07:10:12;;;;;;;6.85;2.85;;;4.90;99.90;;;;;;6104575;23;20413;-84
2023/03/16 07:12:38;;;;;;;10.90;3.28;;;4.90;99.90;;;;;;6131039;23;20072;-84
2023/03/16 07:15:04;;;;;;;4.95;2.22;;;4.90;99.90;;;;;;6106543;23;20017;-84
2023/03/16 07:17:31;;;;;;;6.03;2.60;;;5.00;99.90;;;;;;6129758;23;20064;-84
2023/03/16 07:19:56;;;;;;;8.48;3.05;;;5.00;99.90;;;;;;6130069;23;20013;-84
2023/03/16 07:22:22;;;;;;;8.38;2.97;;;5.00;99.90;;;;;;6106421;23;20011;-84
2023/03/16 07:24:54;;;;;;;6.60;3.40;;;5.00;99.90;;;;;;6105509;23;20053;-84
2023/03/16 07:27:22;;;;;;;5.03;2.95;;;5.00;99.90;;;;;;6131023;23;20013;-84
2023/03/16 07:29:48;;;;;;;3.08;2.65;;;5.10;99.90;;;;;;6104513;23;20512;-84
2023/03/16 07:32:14;;;;;;;5.93;2.78;;;5.10;99.90;;;;;;6105685;23;20021;-84
2023/03/16 07:34:40;;;;;;;5.47;2.85;;;5.20;99.90;;;;;;6104338;23;20024;-84
2023/03/16 07:37:07;;;;;;;7.97;2.90;;;5.20;99.90;;;;;;6104956;23;20014;-84
2023/03/16 07:39:34;;;;;;;4.90;2.40;;;5.20;99.90;;;;;;6129262;23;20005;-84
2023/03/16 07:42:05;;;;;;;9.13;2.63;;;5.10;99.90;;;;;;6104856;23;20048;-84
2023/03/16 07:44:30;;;;;;;5.10;2.60;;;5.20;99.90;;;;;;6128287;23;20079;-84
2023/03/16 07:46:58;;;;;;;6.78;2.72;;;5.20;99.90;;;;;;6105538;23;20100;-84
2023/03/16 07:49:33;;;;;;;5.15;2.58;;;5.30;99.90;;;;;;6127007;23;20014;-84
2023/03/16 07:51:59;;;;;;;3.75;2.15;;;5.30;99.90;;;;;;6107006;23;20090;-84
2023/03/16 07:54:24;;;;;;;9.70;2.60;;;5.40;99.90;;;;;;6104243;23;20045;-83
2023/03/16 07:56:53;;;;;;;5.25;2.40;;;5.30;99.90;;;;;;6129647;23;20013;-84
2023/03/16 07:59:19;;;;;;;5.35;2.35;;;5.40;99.90;;;;;;6128759;23;20429;-83
2023/03/16 08:01:45;;;;;;;6.25;2.78;;;5.40;99.90;;;;;;6104700;23;20085;-84
2023/03/16 08:04:11;;;;;;;8.63;2.33;;;5.40;99.90;;;;;;6105409;23;20036;-84
2023/03/16 08:06:37;;;;;;;5.93;2.80;;;5.40;99.90;;;;;;6109042;23;20052;-83
2023/03/16 08:09:02;;;;;;;6.20;3.17;;;5.50;99.90;;;;;;6108490;23;20013;-84
2023/03/16 08:11:28;;;;;;;4.38;2.58;;;5.50;99.90;;;;;;6129116;23;20024;-84
2023/03/16 08:13:55;;;;;;;4.28;2.67;;;5.50;99.90;;;;;;6105973;23;20020;-83
2023/03/16 08:16:22;;;;;;;5.32;3.25;;;5.50;99.90;;;;;;6130775;23;20021;-84
2023/03/16 08:18:49;;;;;;;6.78;2.97;;;5.50;99.90;;;;;;6106261;23;20041;-84
2023/03/16 08:21:18;;;;;;;4.50;2.92;;;5.50;99.90;;;;;;6105757;23;20032;-84
2023/03/16 08:23:48;;;;;;;4.78;2.80;;;5.60;99.90;;;;;;6130771;23;20040;-84
2023/03/16 08:26:21;;;;;;;4.70;3.05;;;5.50;99.90;;;;;;6103576;23;20069;-84
2023/03/16 08:28:50;;;;;;;4.00;2.95;;;5.50;99.90;;;;;;6104228;23;20021;-84
2023/03/16 08:31:17;;;;;;;5.68;3.75;;;5.50;99.90;;;;;;6127532;23;20028;-84
2023/03/16 08:33:45;;;;;;;4.80;3.30;;;5.50;99.90;;;;;;6104803;23;20020;-84
2023/03/16 08:36:14;;;;;;;6.95;3.42;;;5.40;99.90;;;;;;6104057;23;20022;-84
2023/03/16 08:38:40;;;;;;;7.45;3.58;;;5.40;99.90;;;;;;6105282;23;20016;-84
2023/03/16 08:41:07;;;;;;;4.93;3.05;;;5.40;99.90;;;;;;6103067;23;20403;-84
2023/03/16 08:43:33;;;;;;;6.95;2.97;;;5.40;99.90;;;;;;6127787;23;20078;-85
2023/03/16 08:46:00;;;;;;;7.45;3.03;;;5.50;99.90;;;;;;6101310;23;20350;-84
2023/03/16 08:48:27;;;;;;;7.20;3.10;;;5.40;99.90;;;;;;6126467;23;20480;-85
2023/03/16 08:50:54;;;;;;;7.13;3.38;;;5.40;99.90;;;;;;6102014;23;20013;-85
2023/03/16 08:54:24;;;;;;;;;;;;;;;;;;;;;
2023/03/16 08:57:58;;;;;;;4.75;3.10;;;5.40;99.90;;;;;;6151475;23;20013;-88
2023/03/16 09:01:34;;;;;;;5.18;3.63;;;5.50;99.90;;;;;;6089243;23;20017;-87
2023/03/16 09:04:57;;;;;;;;;;;;;;;;;;;;;
2023/03/16 09:08:17;;;;;;;11.70;3.80;;;5.40;99.90;;;;;;6013646;23;20024;-88
2023/03/16 09:11:14;;;;;;;4.78;3.47;;;6.00;99.90;;;;;;6142658;23;20010;-88
2023/03/16 09:14:06;;;;;;;6.97;3.22;;;5.40;99.90;;;;;;6126105;23;20378;-87
2023/03/16 09:17:27;;;;;;;7.00;3.67;;;5.20;99.90;;;;;;6126452;23;20014;-87
2023/03/16 09:20:27;;;;;;;6.03;3.90;;;5.40;99.90;;;;;;6101611;23;20417;-88
2023/03/16 09:23:29;;;;;;;5.40;3.95;;;6.70;99.90;;;;;;6125195;23;20018;-87
2023/03/16 09:26:00;;;;;;;5.15;3.67;;;5.40;99.90;;;;;;6101546;23;20047;-87
2023/03/16 09:28:27;;;;;;;6.30;3.40;;;5.70;99.90;;;;;;6125494;23;20401;-87
2023/03/16 09:30:55;;;;;;;6.65;3.47;;;6.20;99.90;;;;;;6125477;23;20018;-88
2023/03/16 09:33:23;;;;;;;7.85;4.03;;;5.90;99.90;;;;;;6124376;23;20024;-87
2023/03/16 09:35:54;;;;;;;7.18;4.15;;;5.60;99.90;;;;;;6101464;23;20458;-87
2023/03/16 09:38:36;;;;;;;5.30;4.20;;;5.70;99.90;;;;;;6126444;23;20076;-87
2023/03/16 09:41:40;;;;;;;6.07;3.60;;;5.00;99.90;;;;;;6126223;23;20016;-87
2023/03/16 09:44:38;;;;;;;8.27;3.95;;;5.90;99.90;;;;;;6101692;23;20091;-87
2023/03/16 09:47:29;;;;;;;7.50;4.18;;;6.00;99.90;;;;;;6101628;23;20024;-88
2023/03/16 09:50:30;;;;;;;8.95;4.65;;;5.90;99.90;;;;;;6103367;23;20029;-88
2023/03/16 09:56:49;;;;;;;4.90;3.63;;;6.00;99.90;;;;;;6000856;23;20103;-88
2023/03/16 10:03:58;;;;;;;8.55;4.40;;;6.00;99.90;;;;;;5922145;24;20455;-88
2023/03/16 10:07:31;;;;;;;7.03;4.30;;;6.10;99.90;;;;;;5816364;24;20023;-89
2023/03/16 14:00:26;;;;;;;4.13;1.92;;;10.80;99.90;;;;;;6143319;23;20029;-82
2023/03/16 15:19:52;;;;;;;4.78;2.38;;;10.60;99.90;;;;;;6146976;23;20024;-84
2023/03/16 15:34:10;;;;;;;3.58;2.63;;;10.50;99.90;;;;;;5963662;23;20106;-86
2023/03/16 15:37:16;;;;;;;4.28;2.70;;;10.50;99.90;;;;;;5958090;23;20101;-86
2023/03/16 15:45:02;;;;;;;6.45;2.85;;;10.40;99.90;;;;;;5967384;24;20162;-86
2023/03/16 15:48:40;;;;;;;4.18;2.30;;;10.50;99.90;;;;;;5937960;24;20023;-86
2023/03/16 15:51:31;;;;;;;5.78;2.60;;;10.50;99.90;;;;;;5902426;24;20024;-83
2023/03/16 16:06:32;;;;;;;3.83;2.08;;;10.30;99.90;;;;;;6034218;23;20026;-86
2023/03/16 17:17:17;;;;;;;5.72;1.80;;;8.10;99.90;;;;;;6146120;23;20067;-81
2023/03/16 17:19:45;;;;;;;4.97;2.25;;;9.00;99.90;;;;;;6091938;23;20017;-83
2023/03/16 17:22:29;;;;;;;5.32;2.25;;;9.00;99.90;;;;;;6103730;23;20016;-84
2023/03/16 17:24:59;;;;;;;7.03;2.30;;;8.80;99.90;;;;;;6104652;23;20076;-82
2023/03/16 17:27:32;;;;;;;5.18;2.33;;;8.90;99.90;;;;;;6122044;23;20017;-84
2023/03/16 17:30:22;;;;;;;8.48;2.15;;;8.70;99.90;;;;;;6098293;23;20047;-87
2023/03/16 17:40:46;;;;;;;5.40;1.65;;;8.60;99.90;;;;;;6091218;23;20009;-85
2023/03/16 17:44:30;;;;;;;6.75;2.53;;;8.60;99.90;;;;;;5974592;23;20050;-85
2023/03/16 17:55:23;;;;;;;3.33;1.90;;;8.50;99.90;;;;;;5948901;24;20524;-86
2023/03/16 18:01:59;;;;;;;5.70;2.22;;;8.40;99.90;;;;;;5976875;24;20163;-85
2023/03/16 18:04:31;;;;;;;5.75;2.42;;;9.00;99.90;;;;;;5929239;24;20036;-86
2023/03/16 18:25:39;;;;;;;4.40;2.63;;;8.80;99.90;;;;;;5994474;23;20035;-84
2023/03/16 18:28:07;;;;;;;4.38;2.17;;;9.00;99.90;;;;;;6002912;23;20059;-84
2023/03/16 18:30:36;;;;;;;4.28;2.25;;;8.20;99.90;;;;;;5981856;23;20025;-83
2023/03/16 18:33:11;;;;;;;5.22;2.10;;;8.20;99.90;;;;;;6126009;23;20028;-85
2023/03/16 18:35:37;;;;;;;6.70;1.80;;;8.20;99.90;;;;;;6125940;23;20466;-83
2023/03/16 18:38:30;;;;;;;4.05;2.03;;;8.20;99.90;;;;;;6104074;23;20047;-83
2023/03/16 18:40:59;;;;;;;4.57;2.50;;;8.20;99.90;;;;;;6104086;23;20014;-83
2023/03/16 18:43:54;;;;;;;5.50;2.35;;;8.20;99.90;;;;;;6102303;23;20024;-85
2023/03/16 18:46:37;;;;;;;4.70;1.88;;;8.20;99.90;;;;;;6095053;23;20104;-84
2023/03/16 18:49:15;;;;;;;5.35;1.65;;;9.10;99.90;;;;;;6124234;23;20009;-83
2023/03/16 18:51:43;;;;;;;3.97;2.13;;;8.20;99.90;;;;;;6100810;23;20035;-83
2023/03/16 18:54:34;;;;;;;6.53;2.25;;;8.10;99.90;;;;;;6100704;23;20442;-83
2023/03/16 18:57:03;;;;;;;5.97;2.45;;;8.10;99.90;;;;;;6125644;23;20016;-84
2023/03/16 18:59:32;;;;;;;2.67;1.60;;;8.20;99.90;;;;;;6099820;23;20010;-83
2023/03/16 19:02:20;;;;;;;7.15;1.88;;;8.10;99.90;;;;;;6150387;23;20009;-85
2023/03/16 19:04:50;;;;;;;4.70;1.90;;;8.00;99.90;;;;;;6127299;23;20449;-85
2023/03/16 19:07:24;;;;;;;6.78;2.22;;;8.00;99.90;;;;;;6126159;23;20021;-85
2023/03/16 19:09:50;;;;;;;3.65;1.83;;;7.90;99.90;;;;;;6101435;23;20053;-85
2023/03/16 19:12:19;;;;;;;5.22;2.38;;;7.90;99.90;;;;;;6122469;23;20107;-83
2023/03/16 19:14:44;;;;;;;7.28;2.22;;;7.90;99.90;;;;;;6126917;23;20009;-85
2023/03/16 19:17:17;;;;;;;8.50;1.80;;;7.90;99.90;;;;;;6100668;23;20407;-84
2023/03/16 19:19:43;;;;;;;7.15;2.22;;;7.90;99.90;;;;;;6098295;23;20125;-82
2023/03/16 19:22:17;;;;;;;5.00;2.50;;;7.80;99.90;;;;;;6084828;23;20098;-82
2023/03/16 19:24:49;;;;;;;3.47;1.75;;;7.80;99.90;;;;;;6122002;23;20119;-83
2023/03/16 19:27:38;;;;;;;2.92;1.90;;;7.80;99.90;;;;;;6121555;23;20254;-85
2023/03/16 19:30:21;;;;;;;6.07;2.17;;;7.80;99.90;;;;;;6124924;23;20024;-85
2023/03/16 19:32:55;;;;;;;8.65;2.80;;;7.80;99.90;;;;;;6123205;23;20013;-83
2023/03/16 19:35:37;;;;;;;5.00;1.90;;;7.80;99.90;;;;;;6082418;23;20025;-86
2023/03/16 19:38:03;;;;;;;2.90;2.00;;;7.70;99.90;;;;;;6123731;23;20024;-82
2023/03/16 19:40:28;;;;;;;3.88;1.75;;;7.70;99.90;;;;;;6119326;23;20022;-82
2023/03/16 19:42:54;;;;;;;3.20;2.00;;;7.70;99.90;;;;;;6142701;23;20623;-83
2023/03/16 19:45:23;;;;;;;3.28;1.70;;;8.50;99.90;;;;;;6120526;23;20020;-83
2023/03/16 19:47:50;;;;;;;3.35;1.92;;;7.70;99.90;;;;;;6145636;23;20045;-82
2023/03/16 19:50:22;;;;;;;3.92;1.95;;;7.70;99.90;;;;;;6145667;23;20013;-83
2023/03/16 19:52:50;;;;;;;6.43;1.85;;;7.70;99.90;;;;;;6145767;23;20045;-82
2023/03/16 19:55:21;;;;;;;4.53;1.98;;;7.70;99.90;;;;;;6144836;23;20730;-83
2023/03/16 19:57:53;;;;;;;3.40;1.60;;;7.70;99.90;;;;;;6140913;23;20331;-81
2023/03/16 20:00:24;;;;;;;4.53;2.13;;;7.60;99.90;;;;;;6121973;23;20014;-82
2023/03/16 20:02:50;;;;;;;3.15;2.03;;;8.00;99.90;;;;;;6120661;23;20726;-82
2023/03/16 20:05:21;;;;;;;2.83;1.48;;;7.80;99.90;;;;;;6095646;23;20048;-85
2023/03/16 20:07:47;;;;;;;8.35;2.63;;;7.80;99.90;;;;;;6168954;23;20153;-84
2023/03/16 20:10:22;;;;;;;9.15;2.20;;;7.80;99.90;;;;;;6094626;23;20018;-84
2023/03/16 20:12:56;;;;;;;5.07;2.00;;;7.80;99.90;;;;;;6096881;23;20093;-81
2023/03/16 20:15:25;;;;;;;4.65;1.83;;;7.90;99.90;;;;;;6101554;23;20731;-81
2023/03/16 20:17:51;;;;;;;5.20;2.20;;;8.00;99.90;;;;;;6124262;23;20398;-82
2023/03/16 20:20:33;;;;;;;7.25;2.45;;;8.10;99.90;;;;;;6121722;23;20041;-82
2023/03/16 20:22:58;;;;;;;4.43;1.73;;;8.00;99.90;;;;;;6122446;23;20014;-82
2023/03/16 20:25:28;;;;;;;5.13;2.17;;;8.10;99.90;;;;;;6122195;23;20108;-82
2023/03/16 20:27:58;;;;;;;4.55;1.58;;;8.10;99.90;;;;;;6094728;23;20377;-82
2023/03/16 20:30:24;;;;;;;5.32;1.73;;;8.20;99.90;;;;;;6095231;23;20028;-81
2023/03/16 20:32:50;;;;;;;3.28;1.30;;;8.30;99.90;;;;;;6097637;23;20013;-82
2023/03/16 20:35:29;;;;;;;4.75;1.60;;;8.30;99.90;;;;;;6097195;23;20032;-82
2023/03/16 20:37:55;;;;;;;4.10;2.08;;;8.40;99.90;;;;;;6124916;23;20032;-82
2023/03/16 20:40:22;;;;;;;4.40;1.83;;;8.40;99.90;;;;;;6147122;23;20013;-82
2023/03/16 20:42:48;;;;;;;4.72;2.17;;;8.50;99.90;;;;;;6096170;23;20041;-84
2023/03/16 20:45:26;;;;;;;3.55;1.75;;;8.40;99.90;;;;;;6118817;23;20327;-83
2023/03/16 20:47:52;;;;;;;6.00;1.88;;;8.50;99.90;;;;;;6120034;23;20338;-82
2023/03/16 20:50:25;;;;;;;5.13;1.83;;;8.50;99.90;;;;;;6120002;23;20013;-83
2023/03/16 20:52:52;;;;;;;2.65;1.83;;;8.60;99.90;;;;;;6094666;23;20092;-82
2023/03/16 20:55:20;;;;;;;5.32;1.90;;;8.60;99.90;;;;;;6118874;23;20021;-82
2023/03/16 20:57:47;;;;;;;4.45;2.05;;;8.60;99.90;;;;;;6119797;23;20067;-82
2023/03/16 21:00:37;;;;;;;3.92;1.83;;;8.60;99.90;;;;;;6095808;23;20068;-82
2023/03/16 21:03:15;;;;;;;6.13;1.88;;;8.60;99.90;;;;;;6094636;23;20108;-83